createdAt,value
2017-12-20T00:00:03.512Z,1026.39
2017-12-20T00:00:44.091Z,1026.4
2017-12-20T00:01:24.719Z,1026.42
2017-12-20T00:02:05.300Z,1026.4
2017-12-20T00:02:45.882Z,1026.41
2017-12-20T00:03:26.485Z,1026.4
2017-12-20T00:04:07.055Z,1026.4
2017-12-20T00:04:47.662Z,1026.38
2017-12-20T00:05:28.213Z,1026.35
2017-12-20T00:06:08.821Z,1026.36
2017-12-20T00:06:49.424Z,1026.35
2017-12-20T00:07:30.010Z,1026.38
2017-12-20T00:08:10.609Z,1026.38
2017-12-20T00:08:51.258Z,1026.4
2017-12-20T00:09:31.803Z,1026.41
2017-12-20T00:10:12.412Z,1026.4
2017-12-20T00:10:53.011Z,1026.39
2017-12-20T00:11:33.587Z,1026.41
2017-12-20T00:12:14.174Z,1026.42
2017-12-20T00:12:54.751Z,1026.4
2017-12-20T00:13:35.352Z,1026.42
2017-12-20T00:14:15.926Z,1026.42
2017-12-20T00:14:56.537Z,1026.42
2017-12-20T00:15:37.115Z,1026.44
2017-12-20T00:16:17.704Z,1026.42
2017-12-20T00:16:58.267Z,1026.4
2017-12-20T00:17:38.904Z,1026.41
2017-12-20T00:18:19.472Z,1026.36
2017-12-20T00:19:00.080Z,1026.31
2017-12-20T00:19:40.660Z,1026.31
2017-12-20T00:20:21.262Z,1026.34
2017-12-20T00:21:01.869Z,1026.32
2017-12-20T00:21:42.452Z,1026.31
2017-12-20T00:22:23.017Z,1026.36
2017-12-20T00:23:03.589Z,1026.41
2017-12-20T00:23:44.154Z,1026.45
2017-12-20T00:24:24.741Z,1026.47
2017-12-20T00:25:05.313Z,1026.48
2017-12-20T00:25:45.889Z,1026.48
2017-12-20T00:26:26.458Z,1026.47
2017-12-20T00:27:07.049Z,1026.49
2017-12-20T00:27:47.619Z,1026.46
2017-12-20T00:28:28.199Z,1026.5
2017-12-20T00:29:08.753Z,1026.49
2017-12-20T00:29:49.333Z,1026.49
2017-12-20T00:30:29.923Z,1026.49
2017-12-20T00:31:10.503Z,1026.48
2017-12-20T00:31:51.121Z,1026.51
2017-12-20T00:32:31.672Z,1026.51
2017-12-20T00:33:12.237Z,1026.53
2017-12-20T00:33:52.840Z,1026.5
2017-12-20T00:34:33.516Z,1026.54
2017-12-20T00:35:14.111Z,1026.58
2017-12-20T00:35:54.686Z,1026.57
2017-12-20T00:36:35.281Z,1026.51
2017-12-20T00:37:15.900Z,1026.52
2017-12-20T00:37:56.479Z,1026.54
2017-12-20T00:38:37.044Z,1026.52
2017-12-20T00:39:17.619Z,1026.51
2017-12-20T00:39:58.177Z,1026.57
2017-12-20T00:40:38.757Z,1026.57
2017-12-20T00:41:19.362Z,1026.55
2017-12-20T00:41:59.948Z,1026.56
2017-12-20T00:42:40.516Z,1026.53
2017-12-20T00:43:21.123Z,1026.52
2017-12-20T00:44:01.735Z,1026.53
2017-12-20T00:44:42.355Z,1026.53
2017-12-20T00:45:22.940Z,1026.54
2017-12-20T00:46:03.494Z,1026.56
2017-12-20T00:46:44.054Z,1026.54
2017-12-20T00:47:24.630Z,1026.54
2017-12-20T00:48:05.189Z,1026.52
2017-12-20T00:48:45.768Z,1026.53
2017-12-20T00:49:26.347Z,1026.52
2017-12-20T00:50:06.923Z,1026.53
2017-12-20T00:50:47.526Z,1026.52
2017-12-20T00:51:28.081Z,1026.53
2017-12-20T00:52:08.660Z,1026.54
2017-12-20T00:52:49.241Z,1026.54
2017-12-20T00:53:29.811Z,1026.55
2017-12-20T00:54:10.379Z,1026.54
2017-12-20T00:54:51.000Z,1026.53
2017-12-20T00:55:31.616Z,1026.48
2017-12-20T00:56:12.195Z,1026.49
2017-12-20T00:56:52.769Z,1026.46
2017-12-20T00:57:33.330Z,1026.48
2017-12-20T00:58:13.947Z,1026.44
2017-12-20T00:58:54.543Z,1026.44
2017-12-20T00:59:35.142Z,1026.46
2017-12-20T01:00:15.749Z,1026.47
2017-12-20T01:00:56.314Z,1026.48
2017-12-20T01:01:36.907Z,1026.49
2017-12-20T01:02:17.480Z,1026.47
2017-12-20T01:02:58.087Z,1026.49
2017-12-20T01:03:38.697Z,1026.47
2017-12-20T01:04:19.293Z,1026.51
2017-12-20T01:04:59.889Z,1026.46
2017-12-20T01:05:40.453Z,1026.49
2017-12-20T01:06:21.032Z,1026.51
2017-12-20T01:07:01.611Z,1026.54
2017-12-20T01:07:42.178Z,1026.49
2017-12-20T01:08:22.754Z,1026.47
2017-12-20T01:09:03.337Z,1026.5
2017-12-20T01:09:43.924Z,1026.46
2017-12-20T01:10:24.509Z,1026.44
2017-12-20T01:11:05.126Z,1026.43
2017-12-20T01:11:45.711Z,1026.48
2017-12-20T01:12:26.284Z,1026.44
2017-12-20T01:13:06.870Z,1026.46
2017-12-20T01:13:47.440Z,1026.44
2017-12-20T01:14:28.011Z,1026.42
2017-12-20T01:15:08.628Z,1026.44
2017-12-20T01:15:49.183Z,1026.39
2017-12-20T01:16:29.749Z,1026.4
2017-12-20T01:17:10.315Z,1026.39
2017-12-20T01:17:50.943Z,1026.39
2017-12-20T01:18:31.528Z,1026.44
2017-12-20T01:19:12.132Z,1026.41
2017-12-20T01:19:52.699Z,1026.45
2017-12-20T01:20:33.286Z,1026.46
2017-12-20T01:21:13.871Z,1026.48
2017-12-20T01:21:54.442Z,1026.5
2017-12-20T01:22:35.004Z,1026.51
2017-12-20T01:23:15.593Z,1026.54
2017-12-20T01:23:56.150Z,1026.54
2017-12-20T01:24:36.734Z,1026.58
2017-12-20T01:25:17.314Z,1026.56
2017-12-20T01:25:57.900Z,1026.58
2017-12-20T01:26:38.453Z,1026.56
2017-12-20T01:27:19.024Z,1026.59
2017-12-20T01:27:59.687Z,1026.54
2017-12-20T01:28:40.267Z,1026.52
2017-12-20T01:29:20.840Z,1026.48
2017-12-20T01:30:01.410Z,1026.54
2017-12-20T01:30:42.023Z,1026.52
2017-12-20T01:31:22.602Z,1026.56
2017-12-20T01:32:03.160Z,1026.55
2017-12-20T01:32:43.746Z,1026.55
2017-12-20T01:33:24.330Z,1026.59
2017-12-20T01:34:04.889Z,1026.59
2017-12-20T01:34:45.459Z,1026.54
2017-12-20T01:35:26.020Z,1026.54
2017-12-20T01:36:06.588Z,1026.55
2017-12-20T01:36:47.184Z,1026.54
2017-12-20T01:37:31.698Z,1026.55
2017-12-20T01:38:12.266Z,1026.56
2017-12-20T01:38:52.857Z,1026.58
2017-12-20T01:39:33.434Z,1026.61
2017-12-20T01:40:14.041Z,1026.57
2017-12-20T01:40:54.610Z,1026.62
2017-12-20T01:41:35.183Z,1026.63
2017-12-20T01:42:15.746Z,1026.62
2017-12-20T01:42:56.324Z,1026.59
2017-12-20T01:43:36.897Z,1026.58
2017-12-20T01:44:17.479Z,1026.6
2017-12-20T01:44:58.048Z,1026.56
2017-12-20T01:45:38.636Z,1026.57
2017-12-20T01:46:19.216Z,1026.57
2017-12-20T01:46:59.800Z,1026.56
2017-12-20T01:47:40.379Z,1026.59
2017-12-20T01:48:20.950Z,1026.52
2017-12-20T01:49:01.544Z,1026.57
2017-12-20T01:49:42.176Z,1026.62
2017-12-20T01:50:22.709Z,1026.61
2017-12-20T01:51:03.303Z,1026.63
2017-12-20T01:51:43.886Z,1026.64
2017-12-20T01:52:24.468Z,1026.68
2017-12-20T01:53:05.032Z,1026.7
2017-12-20T01:53:45.614Z,1026.68
2017-12-20T01:54:26.215Z,1026.77
2017-12-20T01:55:06.788Z,1026.74
2017-12-20T01:55:47.362Z,1026.75
2017-12-20T01:56:27.923Z,1026.7
2017-12-20T01:57:08.505Z,1026.72
2017-12-20T01:57:49.068Z,1026.68
2017-12-20T01:58:29.659Z,1026.69
2017-12-20T01:59:10.222Z,1026.66
2017-12-20T01:59:50.842Z,1026.64
2017-12-20T02:00:31.390Z,1026.69
2017-12-20T02:01:11.973Z,1026.67
2017-12-20T02:01:52.528Z,1026.62
2017-12-20T02:02:33.105Z,1026.6
2017-12-20T02:03:13.681Z,1026.6
2017-12-20T02:03:54.255Z,1026.59
2017-12-20T02:04:34.824Z,1026.6
2017-12-20T02:05:15.401Z,1026.63
2017-12-20T02:05:56.005Z,1026.62
2017-12-20T02:06:36.564Z,1026.63
2017-12-20T02:07:17.160Z,1026.64
2017-12-20T02:07:57.724Z,1026.61
2017-12-20T02:08:38.310Z,1026.63
2017-12-20T02:09:18.896Z,1026.61
2017-12-20T02:09:59.468Z,1026.62
2017-12-20T02:10:40.041Z,1026.61
2017-12-20T02:11:20.610Z,1026.63
2017-12-20T02:12:01.175Z,1026.62
2017-12-20T02:12:41.754Z,1026.63
2017-12-20T02:13:22.329Z,1026.65
2017-12-20T02:14:02.932Z,1026.63
2017-12-20T02:14:43.502Z,1026.64
2017-12-20T02:15:24.084Z,1026.64
2017-12-20T02:16:04.670Z,1026.6
2017-12-20T02:16:45.243Z,1026.6
2017-12-20T02:17:25.809Z,1026.62
2017-12-20T02:18:06.383Z,1026.62
2017-12-20T02:18:46.998Z,1026.6
2017-12-20T02:19:27.568Z,1026.65
2017-12-20T02:20:08.136Z,1026.6
2017-12-20T02:20:48.707Z,1026.66
2017-12-20T02:21:29.313Z,1026.66
2017-12-20T02:22:09.837Z,1026.66
2017-12-20T02:22:50.399Z,1026.72
2017-12-20T02:23:31.010Z,1026.7
2017-12-20T02:24:11.596Z,1026.71
2017-12-20T02:24:52.150Z,1026.75
2017-12-20T02:25:32.732Z,1026.73
2017-12-20T02:26:13.301Z,1026.74
2017-12-20T02:26:53.861Z,1026.74
2017-12-20T02:27:34.420Z,1026.77
2017-12-20T02:28:15.016Z,1026.77
2017-12-20T02:28:55.560Z,1026.77
2017-12-20T02:29:36.127Z,1026.73
2017-12-20T02:30:16.718Z,1026.75
2017-12-20T02:30:57.275Z,1026.71
2017-12-20T02:31:37.833Z,1026.74
2017-12-20T02:32:18.406Z,1026.73
2017-12-20T02:32:58.971Z,1026.75
2017-12-20T02:33:39.547Z,1026.73
2017-12-20T02:34:20.121Z,1026.78
2017-12-20T02:35:00.697Z,1026.76
2017-12-20T02:35:41.272Z,1026.75
2017-12-20T02:36:21.824Z,1026.83
2017-12-20T02:37:02.389Z,1026.75
2017-12-20T02:37:42.956Z,1026.81
2017-12-20T02:38:23.515Z,1026.78
2017-12-20T02:39:04.081Z,1026.84
2017-12-20T02:39:44.645Z,1026.83
2017-12-20T02:40:25.220Z,1026.86
2017-12-20T02:41:05.783Z,1026.85
2017-12-20T02:41:46.341Z,1026.84
2017-12-20T02:42:26.922Z,1026.82
2017-12-20T02:43:07.492Z,1026.84
2017-12-20T02:43:48.108Z,1026.8
2017-12-20T02:44:28.668Z,1026.8
2017-12-20T02:45:09.247Z,1026.8
2017-12-20T02:45:49.842Z,1026.83
2017-12-20T02:46:30.429Z,1026.81
2017-12-20T02:47:10.990Z,1026.7
2017-12-20T02:47:51.551Z,1026.73
2017-12-20T02:48:32.121Z,1026.74
2017-12-20T02:49:12.705Z,1026.75
2017-12-20T02:49:53.265Z,1026.76
2017-12-20T02:50:33.848Z,1026.73
2017-12-20T02:51:14.401Z,1026.72
2017-12-20T02:51:54.992Z,1026.75
2017-12-20T02:52:35.563Z,1026.73
2017-12-20T02:53:16.169Z,1026.74
2017-12-20T02:53:56.732Z,1026.71
2017-12-20T02:54:37.319Z,1026.74
2017-12-20T02:55:17.877Z,1026.69
2017-12-20T02:55:58.434Z,1026.68
2017-12-20T02:56:39.002Z,1026.66
2017-12-20T02:57:19.559Z,1026.69
2017-12-20T02:58:00.142Z,1026.66
2017-12-20T02:58:40.708Z,1026.66
2017-12-20T02:59:21.278Z,1026.69
2017-12-20T03:00:01.847Z,1026.66
2017-12-20T03:00:42.436Z,1026.65
2017-12-20T03:01:23.003Z,1026.67
2017-12-20T03:02:03.583Z,1026.69
2017-12-20T03:02:44.144Z,1026.69
2017-12-20T03:03:24.741Z,1026.67
2017-12-20T03:04:05.307Z,1026.66
2017-12-20T03:04:45.864Z,1026.66
2017-12-20T03:05:26.422Z,1026.65
2017-12-20T03:06:07.003Z,1026.66
2017-12-20T03:06:47.583Z,1026.65
2017-12-20T03:07:28.141Z,1026.6
2017-12-20T03:08:08.717Z,1026.6
2017-12-20T03:08:49.296Z,1026.59
2017-12-20T03:09:29.919Z,1026.6
2017-12-20T03:10:10.517Z,1026.58
2017-12-20T03:10:51.095Z,1026.52
2017-12-20T03:11:31.680Z,1026.5
2017-12-20T03:12:12.283Z,1026.51
2017-12-20T03:12:52.846Z,1026.53
2017-12-20T03:13:33.406Z,1026.47
2017-12-20T03:14:13.991Z,1026.48
2017-12-20T03:14:54.570Z,1026.49
2017-12-20T03:15:35.216Z,1026.5
2017-12-20T03:16:15.799Z,1026.5
2017-12-20T03:16:56.377Z,1026.51
2017-12-20T03:17:36.940Z,1026.53
2017-12-20T03:18:17.490Z,1026.48
2017-12-20T03:18:58.073Z,1026.51
2017-12-20T03:19:38.640Z,1026.46
2017-12-20T03:20:19.226Z,1026.47
2017-12-20T03:20:59.783Z,1026.49
2017-12-20T03:21:40.358Z,1026.49
2017-12-20T03:22:20.929Z,1026.49
2017-12-20T03:23:01.509Z,1026.49
2017-12-20T03:23:42.072Z,1026.5
2017-12-20T03:24:22.636Z,1026.45
2017-12-20T03:25:03.246Z,1026.44
2017-12-20T03:25:43.829Z,1026.42
2017-12-20T03:26:24.382Z,1026.46
2017-12-20T03:27:04.954Z,1026.47
2017-12-20T03:27:45.529Z,1026.44
2017-12-20T03:28:26.095Z,1026.43
2017-12-20T03:29:06.693Z,1026.4
2017-12-20T03:29:47.301Z,1026.45
2017-12-20T03:30:27.869Z,1026.43
2017-12-20T03:31:08.431Z,1026.45
2017-12-20T03:31:49.010Z,1026.4
2017-12-20T03:32:29.564Z,1026.41
2017-12-20T03:33:10.140Z,1026.42
2017-12-20T03:33:50.749Z,1026.45
2017-12-20T03:34:31.310Z,1026.38
2017-12-20T03:35:11.877Z,1026.37
2017-12-20T03:35:52.441Z,1026.39
2017-12-20T03:36:33.040Z,1026.39
2017-12-20T03:37:13.610Z,1026.4
2017-12-20T03:37:54.166Z,1026.43
2017-12-20T03:38:34.760Z,1026.41
2017-12-20T03:39:15.392Z,1026.4
2017-12-20T03:39:55.975Z,1026.42
2017-12-20T03:40:36.569Z,1026.45
2017-12-20T03:41:17.116Z,1026.45
2017-12-20T03:41:57.702Z,1026.43
2017-12-20T03:42:38.294Z,1026.38
2017-12-20T03:43:18.863Z,1026.38
2017-12-20T03:43:59.439Z,1026.4
2017-12-20T03:44:40.027Z,1026.37
2017-12-20T03:45:20.587Z,1026.41
2017-12-20T03:46:01.153Z,1026.39
2017-12-20T03:46:41.727Z,1026.37
2017-12-20T03:47:22.277Z,1026.41
2017-12-20T03:48:02.833Z,1026.4
2017-12-20T03:48:43.406Z,1026.42
2017-12-20T03:49:24.005Z,1026.41
2017-12-20T03:50:04.584Z,1026.4
2017-12-20T03:50:45.148Z,1026.42
2017-12-20T03:51:25.724Z,1026.38
2017-12-20T03:52:06.285Z,1026.36
2017-12-20T03:52:46.842Z,1026.42
2017-12-20T03:53:27.443Z,1026.42
2017-12-20T03:54:08.023Z,1026.37
2017-12-20T03:54:48.591Z,1026.37
2017-12-20T03:55:29.172Z,1026.41
2017-12-20T03:56:09.757Z,1026.36
2017-12-20T03:56:50.344Z,1026.41
2017-12-20T03:57:30.919Z,1026.4
2017-12-20T03:58:11.562Z,1026.39
2017-12-20T03:58:52.153Z,1026.38
2017-12-20T03:59:32.741Z,1026.41
2017-12-20T04:00:13.307Z,1026.4
2017-12-20T04:00:53.876Z,1026.37
2017-12-20T04:01:34.454Z,1026.38
2017-12-20T04:02:15.020Z,1026.34
2017-12-20T04:02:55.605Z,1026.37
2017-12-20T04:03:36.175Z,1026.36
2017-12-20T04:04:16.765Z,1026.41
2017-12-20T04:04:57.354Z,1026.43
2017-12-20T04:05:37.934Z,1026.43
2017-12-20T04:06:18.499Z,1026.42
2017-12-20T04:06:59.057Z,1026.42
2017-12-20T04:07:39.635Z,1026.46
2017-12-20T04:08:20.216Z,1026.5
2017-12-20T04:09:00.777Z,1026.48
2017-12-20T04:09:41.338Z,1026.5
2017-12-20T04:10:21.903Z,1026.51
2017-12-20T04:11:02.464Z,1026.51
2017-12-20T04:11:43.029Z,1026.55
2017-12-20T04:12:23.604Z,1026.54
2017-12-20T04:13:04.200Z,1026.53
2017-12-20T04:13:44.768Z,1026.53
2017-12-20T04:14:25.360Z,1026.5
2017-12-20T04:15:05.935Z,1026.51
2017-12-20T04:15:46.494Z,1026.49
2017-12-20T04:16:27.068Z,1026.46
2017-12-20T04:17:07.642Z,1026.43
2017-12-20T04:17:48.209Z,1026.48
2017-12-20T04:18:28.784Z,1026.46
2017-12-20T04:19:09.349Z,1026.47
2017-12-20T04:19:49.938Z,1026.45
2017-12-20T04:20:30.493Z,1026.43
2017-12-20T04:21:11.047Z,1026.45
2017-12-20T04:21:51.606Z,1026.46
2017-12-20T04:22:32.178Z,1026.5
2017-12-20T04:23:12.738Z,1026.53
2017-12-20T04:23:53.300Z,1026.5
2017-12-20T04:24:33.882Z,1026.53
2017-12-20T04:25:14.442Z,1026.52
2017-12-20T04:25:55.002Z,1026.52
2017-12-20T04:26:35.584Z,1026.51
2017-12-20T04:27:16.154Z,1026.53
2017-12-20T04:27:56.766Z,1026.49
2017-12-20T04:28:37.377Z,1026.52
2017-12-20T04:29:17.955Z,1026.52
2017-12-20T04:29:58.545Z,1026.53
2017-12-20T04:30:39.120Z,1026.56
2017-12-20T04:31:19.795Z,1026.51
2017-12-20T04:32:00.368Z,1026.57
2017-12-20T04:32:40.933Z,1026.57
2017-12-20T04:33:21.496Z,1026.59
2017-12-20T04:34:02.080Z,1026.6
2017-12-20T04:34:42.653Z,1026.6
2017-12-20T04:35:23.222Z,1026.61
2017-12-20T04:36:03.796Z,1026.61
2017-12-20T04:36:44.383Z,1026.6
2017-12-20T04:37:24.940Z,1026.63
2017-12-20T04:38:05.504Z,1026.58
2017-12-20T04:38:46.061Z,1026.56
2017-12-20T04:39:26.641Z,1026.63
2017-12-20T04:40:07.233Z,1026.61
2017-12-20T04:40:47.786Z,1026.67
2017-12-20T04:41:28.412Z,1026.66
2017-12-20T04:42:09.021Z,1026.64
2017-12-20T04:42:49.589Z,1026.63
2017-12-20T04:43:30.198Z,1026.71
2017-12-20T04:44:10.771Z,1026.68
2017-12-20T04:44:51.323Z,1026.66
2017-12-20T04:45:31.877Z,1026.66
2017-12-20T04:46:12.456Z,1026.68
2017-12-20T04:46:53.015Z,1026.69
2017-12-20T04:47:33.609Z,1026.69
2017-12-20T04:48:14.169Z,1026.71
2017-12-20T04:48:54.750Z,1026.69
2017-12-20T04:49:35.315Z,1026.69
2017-12-20T04:50:15.888Z,1026.74
2017-12-20T04:50:56.482Z,1026.71
2017-12-20T04:51:37.064Z,1026.73
2017-12-20T04:52:17.642Z,1026.7
2017-12-20T04:52:58.211Z,1026.73
2017-12-20T04:53:38.782Z,1026.75
2017-12-20T04:54:19.325Z,1026.77
2017-12-20T04:54:59.887Z,1026.72
2017-12-20T04:55:40.451Z,1026.71
2017-12-20T04:56:21.291Z,1026.74
2017-12-20T04:57:01.843Z,1026.72
2017-12-20T04:57:42.409Z,1026.71
2017-12-20T04:58:22.983Z,1026.72
2017-12-20T04:59:03.574Z,1026.7
2017-12-20T04:59:44.150Z,1026.71
2017-12-20T05:00:24.707Z,1026.65
2017-12-20T05:01:05.295Z,1026.65
2017-12-20T05:01:45.870Z,1026.62
2017-12-20T05:02:26.449Z,1026.65
2017-12-20T05:03:07.006Z,1026.64
2017-12-20T05:03:47.566Z,1026.63
2017-12-20T05:04:28.147Z,1026.64
2017-12-20T05:05:08.820Z,1026.65
2017-12-20T05:05:49.333Z,1026.66
2017-12-20T05:06:29.915Z,1026.67
2017-12-20T05:07:10.471Z,1026.69
2017-12-20T05:07:51.027Z,1026.66
2017-12-20T05:08:31.611Z,1026.64
2017-12-20T05:09:12.173Z,1026.67
2017-12-20T05:09:52.750Z,1026.63
2017-12-20T05:10:33.337Z,1026.61
2017-12-20T05:11:13.916Z,1026.66
2017-12-20T05:11:54.476Z,1026.6
2017-12-20T05:12:35.062Z,1026.61
2017-12-20T05:13:15.642Z,1026.64
2017-12-20T05:13:56.227Z,1026.67
2017-12-20T05:14:36.811Z,1026.66
2017-12-20T05:15:17.363Z,1026.69
2017-12-20T05:16:00.914Z,1026.67
2017-12-20T05:16:41.489Z,1026.62
2017-12-20T05:17:22.084Z,1026.65
2017-12-20T05:18:02.694Z,1026.62
2017-12-20T05:18:43.286Z,1026.64
2017-12-20T05:19:23.873Z,1026.6
2017-12-20T05:20:04.441Z,1026.68
2017-12-20T05:20:45.009Z,1026.66
2017-12-20T05:21:25.592Z,1026.68
2017-12-20T05:22:06.166Z,1026.64
2017-12-20T05:22:46.731Z,1026.63
2017-12-20T05:23:27.343Z,1026.62
2017-12-20T05:24:07.919Z,1026.65
2017-12-20T05:24:48.510Z,1026.62
2017-12-20T05:25:29.062Z,1026.59
2017-12-20T05:26:09.614Z,1026.62
2017-12-20T05:26:50.188Z,1026.66
2017-12-20T05:27:30.755Z,1026.64
2017-12-20T05:28:11.392Z,1026.68
2017-12-20T05:28:51.980Z,1026.65
2017-12-20T05:29:32.553Z,1026.7
2017-12-20T05:30:15.883Z,1026.71
2017-12-20T05:30:56.459Z,1026.68
2017-12-20T05:31:37.030Z,1026.72
2017-12-20T05:32:17.594Z,1026.73
2017-12-20T05:32:58.187Z,1026.74
2017-12-20T05:33:38.750Z,1026.73
2017-12-20T05:34:19.328Z,1026.78
2017-12-20T05:34:59.937Z,1026.75
2017-12-20T05:35:40.530Z,1026.73
2017-12-20T05:36:21.093Z,1026.76
2017-12-20T05:37:01.716Z,1026.77
2017-12-20T05:37:42.293Z,1026.78
2017-12-20T05:38:22.857Z,1026.76
2017-12-20T05:39:03.443Z,1026.78
2017-12-20T05:39:44.005Z,1026.83
2017-12-20T05:40:24.584Z,1026.85
2017-12-20T05:41:05.145Z,1026.81
2017-12-20T05:41:45.746Z,1026.85
2017-12-20T05:42:26.371Z,1026.84
2017-12-20T05:43:06.941Z,1026.86
2017-12-20T05:43:47.507Z,1026.87
2017-12-20T05:44:28.103Z,1026.89
2017-12-20T05:45:08.669Z,1026.87
2017-12-20T05:45:49.254Z,1026.9
2017-12-20T05:46:29.814Z,1026.92
2017-12-20T05:47:10.398Z,1026.91
2017-12-20T05:47:50.965Z,1026.91
2017-12-20T05:48:31.529Z,1026.93
2017-12-20T05:49:12.107Z,1026.9
2017-12-20T05:49:52.675Z,1026.85
2017-12-20T05:50:33.267Z,1026.9
2017-12-20T05:51:13.831Z,1026.82
2017-12-20T05:51:54.422Z,1026.8
2017-12-20T05:52:34.993Z,1026.87
2017-12-20T05:53:15.622Z,1026.86
2017-12-20T05:53:56.220Z,1026.89
2017-12-20T05:54:36.788Z,1026.89
2017-12-20T05:55:17.376Z,1026.97
2017-12-20T05:55:57.952Z,1026.94
2017-12-20T05:56:38.554Z,1026.91
2017-12-20T05:57:19.123Z,1026.95
2017-12-20T05:57:59.707Z,1026.95
2017-12-20T05:58:40.272Z,1026.93
2017-12-20T05:59:20.861Z,1026.95
2017-12-20T06:00:01.444Z,1026.91
2017-12-20T06:00:42.031Z,1026.92
2017-12-20T06:01:22.587Z,1026.93
2017-12-20T06:02:03.147Z,1026.93
2017-12-20T06:02:43.707Z,1026.94
2017-12-20T06:03:24.279Z,1026.94
2017-12-20T06:04:04.842Z,1026.96
2017-12-20T06:04:45.433Z,1026.94
2017-12-20T06:05:25.988Z,1026.98
2017-12-20T06:06:06.547Z,1027
2017-12-20T06:06:47.170Z,1026.98
2017-12-20T06:07:27.765Z,1027.01
2017-12-20T06:08:08.338Z,1026.97
2017-12-20T06:08:48.906Z,1027.03
2017-12-20T06:09:29.473Z,1026.95
2017-12-20T06:10:10.049Z,1027
2017-12-20T06:10:50.612Z,1027.02
2017-12-20T06:11:31.177Z,1026.98
2017-12-20T06:12:11.749Z,1027
2017-12-20T06:12:52.331Z,1027.08
2017-12-20T06:13:32.926Z,1027.11
2017-12-20T06:14:13.512Z,1027.09
2017-12-20T06:14:54.123Z,1027.06
2017-12-20T06:15:34.697Z,1027.09
2017-12-20T06:16:15.262Z,1027.05
2017-12-20T06:16:55.822Z,1027.07
2017-12-20T06:17:36.438Z,1027.08
2017-12-20T06:18:17.026Z,1027.08
2017-12-20T06:18:57.604Z,1027.08
2017-12-20T06:19:38.177Z,1027.11
2017-12-20T06:20:18.887Z,1027.13
2017-12-20T06:20:59.453Z,1027.09
2017-12-20T06:21:40.039Z,1027.1
2017-12-20T06:22:20.616Z,1027.11
2017-12-20T06:23:01.170Z,1027.11
2017-12-20T06:23:41.750Z,1027.14
2017-12-20T06:24:22.327Z,1027.06
2017-12-20T06:25:02.908Z,1027.13
2017-12-20T06:25:43.474Z,1027.09
2017-12-20T06:26:24.058Z,1027.08
2017-12-20T06:27:04.652Z,1027.1
2017-12-20T06:27:45.498Z,1027.12
2017-12-20T06:28:26.063Z,1027.17
2017-12-20T06:29:06.628Z,1027.13
2017-12-20T06:29:47.195Z,1027.16
2017-12-20T06:30:27.766Z,1027.2
2017-12-20T06:31:08.356Z,1027.2
2017-12-20T06:31:48.967Z,1027.25
2017-12-20T06:32:29.531Z,1027.2
2017-12-20T06:33:10.109Z,1027.21
2017-12-20T06:33:50.681Z,1027.23
2017-12-20T06:34:31.242Z,1027.23
2017-12-20T06:35:11.797Z,1027.27
2017-12-20T06:35:52.369Z,1027.25
2017-12-20T06:36:32.949Z,1027.23
2017-12-20T06:37:13.548Z,1027.26
2017-12-20T06:37:54.141Z,1027.19
2017-12-20T06:38:34.710Z,1027.19
2017-12-20T06:39:15.279Z,1027.25
2017-12-20T06:39:55.851Z,1027.19
2017-12-20T06:40:36.433Z,1027.22
2017-12-20T06:41:17.002Z,1027.18
2017-12-20T06:41:57.557Z,1027.19
2017-12-20T06:42:38.127Z,1027.23
2017-12-20T06:43:18.705Z,1027.25
2017-12-20T06:43:59.280Z,1027.23
2017-12-20T06:44:39.846Z,1027.28
2017-12-20T06:45:20.423Z,1027.28
2017-12-20T06:46:00.993Z,1027.29
2017-12-20T06:46:41.652Z,1027.33
2017-12-20T06:47:22.227Z,1027.3
2017-12-20T06:48:02.798Z,1027.34
2017-12-20T06:48:43.352Z,1027.38
2017-12-20T06:49:23.936Z,1027.36
2017-12-20T06:50:04.503Z,1027.37
2017-12-20T06:50:45.103Z,1027.35
2017-12-20T06:51:25.683Z,1027.41
2017-12-20T06:52:06.245Z,1027.4
2017-12-20T06:52:46.830Z,1027.39
2017-12-20T06:53:27.406Z,1027.39
2017-12-20T06:54:07.966Z,1027.38
2017-12-20T06:54:48.603Z,1027.41
2017-12-20T06:55:29.163Z,1027.39
2017-12-20T06:56:09.726Z,1027.39
2017-12-20T06:56:50.283Z,1027.38
2017-12-20T06:57:30.875Z,1027.36
2017-12-20T06:58:11.445Z,1027.39
2017-12-20T06:58:52.010Z,1027.39
2017-12-20T06:59:32.575Z,1027.38
2017-12-20T07:00:13.149Z,1027.4
2017-12-20T07:00:53.723Z,1027.39
2017-12-20T07:01:34.294Z,1027.41
2017-12-20T07:02:14.872Z,1027.4
2017-12-20T07:02:55.465Z,1027.39
2017-12-20T07:03:36.060Z,1027.41
2017-12-20T07:04:16.697Z,1027.38
2017-12-20T07:04:57.238Z,1027.4
2017-12-20T07:05:37.794Z,1027.43
2017-12-20T07:06:18.373Z,1027.41
2017-12-20T07:06:59.072Z,1027.4
2017-12-20T07:07:42.718Z,1027.42
2017-12-20T07:08:23.284Z,1027.42
2017-12-20T07:09:03.860Z,1027.36
2017-12-20T07:09:44.426Z,1027.43
2017-12-20T07:10:25.013Z,1027.42
2017-12-20T07:11:05.588Z,1027.38
2017-12-20T07:11:46.171Z,1027.36
2017-12-20T07:12:26.766Z,1027.36
2017-12-20T07:13:07.325Z,1027.42
2017-12-20T07:13:47.918Z,1027.39
2017-12-20T07:14:28.526Z,1027.41
2017-12-20T07:15:09.160Z,1027.42
2017-12-20T07:15:49.738Z,1027.38
2017-12-20T07:16:30.336Z,1027.4
2017-12-20T07:17:10.920Z,1027.36
2017-12-20T07:17:51.501Z,1027.42
2017-12-20T07:18:32.072Z,1027.45
2017-12-20T07:19:12.667Z,1027.43
2017-12-20T07:19:53.246Z,1027.39
2017-12-20T07:20:33.816Z,1027.42
2017-12-20T07:21:14.398Z,1027.41
2017-12-20T07:21:54.984Z,1027.42
2017-12-20T07:22:35.560Z,1027.42
2017-12-20T07:23:16.123Z,1027.42
2017-12-20T07:23:56.689Z,1027.45
2017-12-20T07:24:37.255Z,1027.44
2017-12-20T07:25:17.819Z,1027.42
2017-12-20T07:25:58.391Z,1027.47
2017-12-20T07:26:38.957Z,1027.45
2017-12-20T07:27:19.530Z,1027.45
2017-12-20T07:28:00.094Z,1027.43
2017-12-20T07:28:40.676Z,1027.45
2017-12-20T07:29:21.250Z,1027.45
2017-12-20T07:30:01.894Z,1027.48
2017-12-20T07:30:42.462Z,1027.48
2017-12-20T07:31:23.026Z,1027.48
2017-12-20T07:32:03.633Z,1027.5
2017-12-20T07:32:44.236Z,1027.45
2017-12-20T07:33:24.843Z,1027.45
2017-12-20T07:34:05.414Z,1027.48
2017-12-20T07:34:45.983Z,1027.51
2017-12-20T07:35:26.564Z,1027.53
2017-12-20T07:36:07.134Z,1027.53
2017-12-20T07:36:47.733Z,1027.55
2017-12-20T07:37:28.314Z,1027.53
2017-12-20T07:38:08.923Z,1027.54
2017-12-20T07:38:49.511Z,1027.53
2017-12-20T07:39:30.147Z,1027.55
2017-12-20T07:40:10.703Z,1027.51
2017-12-20T07:40:51.298Z,1027.53
2017-12-20T07:41:31.912Z,1027.54
2017-12-20T07:42:12.502Z,1027.57
2017-12-20T07:42:53.068Z,1027.57
2017-12-20T07:43:33.669Z,1027.56
2017-12-20T07:44:14.194Z,1027.61
2017-12-20T07:44:54.833Z,1027.56
2017-12-20T07:45:35.399Z,1027.52
2017-12-20T07:46:15.984Z,1027.53
2017-12-20T07:46:56.562Z,1027.6
2017-12-20T07:47:37.298Z,1027.55
2017-12-20T07:48:17.852Z,1027.59
2017-12-20T07:48:58.450Z,1027.58
2017-12-20T07:49:38.983Z,1027.57
2017-12-20T07:50:19.580Z,1027.58
2017-12-20T07:51:00.215Z,1027.55
2017-12-20T07:51:40.788Z,1027.53
2017-12-20T07:52:21.364Z,1027.56
2017-12-20T07:53:01.944Z,1027.52
2017-12-20T07:53:42.514Z,1027.56
2017-12-20T07:54:23.093Z,1027.58
2017-12-20T07:55:03.653Z,1027.58
2017-12-20T07:55:44.229Z,1027.57
2017-12-20T07:56:24.797Z,1027.59
2017-12-20T07:57:05.401Z,1027.55
2017-12-20T07:57:46.045Z,1027.57
2017-12-20T07:58:26.606Z,1027.61
2017-12-20T07:59:07.171Z,1027.56
2017-12-20T07:59:47.739Z,1027.58
2017-12-20T08:00:28.313Z,1027.59
2017-12-20T08:01:08.877Z,1027.59
2017-12-20T08:01:49.519Z,1027.58
2017-12-20T08:02:30.429Z,1027.58
2017-12-20T08:03:11.067Z,1027.58
2017-12-20T08:03:51.725Z,1027.59
2017-12-20T08:04:32.302Z,1027.6
2017-12-20T08:05:12.910Z,1027.59
2017-12-20T08:05:53.484Z,1027.63
2017-12-20T08:06:34.077Z,1027.64
2017-12-20T08:07:14.640Z,1027.63
2017-12-20T08:07:55.237Z,1027.62
2017-12-20T08:08:35.808Z,1027.62
2017-12-20T08:09:16.368Z,1027.62
2017-12-20T08:09:56.990Z,1027.6
2017-12-20T08:10:37.576Z,1027.64
2017-12-20T08:11:18.152Z,1027.61
2017-12-20T08:11:58.742Z,1027.65
2017-12-20T08:12:39.405Z,1027.66